sensor_id;sensor_type;location;lat;lon;timestamp;temperature;humidity
42019;DHT22;27703;51.980;5.848;2024-03-22T00:00:19;11.30;99.90
42019;DHT22;27703;51.980;5.848;2024-03-22T00:02:45;11.40;99.90
42019;DHT22;27703;51.980;5.848;2024-03-22T00:05:10;11.40;99.90
42019;DHT22;27703;51.980;5.848;2024-03-22T00:07:36;11.40;99.90
42019;DHT22;27703;51.980;5.848;2024-03-22T00:10:02;11.40;99.90
42019;DHT22;27703;51.980;5.848;2024-03-22T00:12:28;11.40;99.90
42019;DHT22;27703;51.980;5.848;2024-03-22T00:14:53;11.40;99.90
42019;DHT22;27703;51.980;5.848;2024-03-22T00:17:20;11.40;99.90
42019;DHT22;27703;51.980;5.848;2024-03-22T00:19:46;11.40;99.90
42019;DHT22;27703;51.980;5.848;2024-03-22T00:22:11;11.50;99.90
42019;DHT22;27703;51.980;5.848;2024-03-22T00:24:37;11.50;99.90
42019;DHT22;27703;51.980;5.848;2024-03-22T00:27:02;11.50;99.90
42019;DHT22;27703;51.980;5.848;2024-03-22T00:29:28;11.50;99.90
42019;DHT22;27703;51.980;5.848;2024-03-22T00:31:53;11.50;99.90
42019;DHT22;27703;51.980;5.848;2024-03-22T00:34:19;11.50;99.90
42019;DHT22;27703;51.980;5.848;2024-03-22T00:36:45;11.50;99.90
42019;DHT22;27703;51.980;5.848;2024-03-22T00:39:11;11.50;99.90
42019;DHT22;27703;51.980;5.848;2024-03-22T00:41:36;11.50;99.90
42019;DHT22;27703;51.980;5.848;2024-03-22T00:44:02;11.50;99.90
42019;DHT22;27703;51.980;5.848;2024-03-22T00:46:27;11.50;99.90
42019;DHT22;27703;51.980;5.848;2024-03-22T00:48:53;11.50;99.90
42019;DHT22;27703;51.980;5.848;2024-03-22T00:51:18;11.60;99.90
42019;DHT22;27703;51.980;5.848;2024-03-22T00:53:44;11.60;99.90
42019;DHT22;27703;51.980;5.848;2024-03-22T00:56:10;11.50;99.90
42019;DHT22;27703;51.980;5.848;2024-03-22T00:58:35;11.50;99.90
42019;DHT22;27703;51.980;5.848;2024-03-22T01:01:01;11.50;99.90
42019;DHT22;27703;51.980;5.848;2024-03-22T01:03:26;11.50;99.90
42019;DHT22;27703;51.980;5.848;2024-03-22T01:05:52;11.50;99.90
42019;DHT22;27703;51.980;5.848;2024-03-22T01:08:17;11.60;99.90
42019;DHT22;27703;51.980;5.848;2024-03-22T01:10:43;11.60;99.90
42019;DHT22;27703;51.980;5.848;2024-03-22T01:13:08;11.60;99.90
42019;DHT22;27703;51.980;5.848;2024-03-22T01:15:34;11.60;99.90
42019;DHT22;27703;51.980;5.848;2024-03-22T01:18:00;11.60;99.90
42019;DHT22;27703;51.980;5.848;2024-03-22T01:20:25;11.60;99.90
42019;DHT22;27703;51.980;5.848;2024-03-22T01:22:51;11.50;99.90
42019;DHT22;27703;51.980;5.848;2024-03-22T01:25:16;11.50;99.90
42019;DHT22;27703;51.980;5.848;2024-03-22T01:27:42;11.50;99.90
42019;DHT22;27703;51.980;5.848;2024-03-22T01:30:08;11.50;99.90
42019;DHT22;27703;51.980;5.848;2024-03-22T01:32:35;11.50;99.90
42019;DHT22;27703;51.980;5.848;2024-03-22T01:35:00;11.50;99.90
42019;DHT22;27703;51.980;5.848;2024-03-22T01:37:26;11.50;99.90
42019;DHT22;27703;51.980;5.848;2024-03-22T01:39:51;11.40;99.90
42019;DHT22;27703;51.980;5.848;2024-03-22T01:42:17;11.40;99.90
42019;DHT22;27703;51.980;5.848;2024-03-22T01:44:42;11.40;99.90
42019;DHT22;27703;51.980;5.848;2024-03-22T01:47:08;11.40;99.90
42019;DHT22;27703;51.980;5.848;2024-03-22T01:49:34;11.40;99.90
42019;DHT22;27703;51.980;5.848;2024-03-22T01:52:00;11.40;99.90
42019;DHT22;27703;51.980;5.848;2024-03-22T01:54:25;11.40;99.90
42019;DHT22;27703;51.980;5.848;2024-03-22T01:56:52;11.40;99.90
42019;DHT22;27703;51.980;5.848;2024-03-22T01:59:17;11.40;99.90
42019;DHT22;27703;51.980;5.848;2024-03-22T02:01:43;11.30;99.90
42019;DHT22;27703;51.980;5.848;2024-03-22T02:04:09;11.30;99.90
42019;DHT22;27703;51.980;5.848;2024-03-22T02:06:35;11.30;99.90
42019;DHT22;27703;51.980;5.848;2024-03-22T02:09:01;11.30;99.90
42019;DHT22;27703;51.980;5.848;2024-03-22T02:11:27;11.30;99.90
42019;DHT22;27703;51.980;5.848;2024-03-22T02:13:52;11.30;99.90
42019;DHT22;27703;51.980;5.848;2024-03-22T02:16:18;11.30;99.90
42019;DHT22;27703;51.980;5.848;2024-03-22T02:18:43;11.30;99.90
42019;DHT22;27703;51.980;5.848;2024-03-22T02:21:12;11.30;99.90
42019;DHT22;27703;51.980;5.848;2024-03-22T02:23:39;11.30;99.90
42019;DHT22;27703;51.980;5.848;2024-03-22T02:26:06;11.30;99.90
42019;DHT22;27703;51.980;5.848;2024-03-22T02:28:32;11.30;99.90
42019;DHT22;27703;51.980;5.848;2024-03-22T02:30:58;11.30;99.90
42019;DHT22;27703;51.980;5.848;2024-03-22T02:33:24;11.30;99.90
42019;DHT22;27703;51.980;5.848;2024-03-22T02:35:50;11.30;99.90
42019;DHT22;27703;51.980;5.848;2024-03-22T02:38:16;11.30;99.90
42019;DHT22;27703;51.980;5.848;2024-03-22T02:40:46;11.30;99.90
42019;DHT22;27703;51.980;5.848;2024-03-22T02:43:12;11.30;99.90
42019;DHT22;27703;51.980;5.848;2024-03-22T02:45:38;11.30;99.90
42019;DHT22;27703;51.980;5.848;2024-03-22T02:48:04;11.30;99.90
42019;DHT22;27703;51.980;5.848;2024-03-22T02:50:37;11.30;99.90
42019;DHT22;27703;51.980;5.848;2024-03-22T02:53:03;11.30;99.90
42019;DHT22;27703;51.980;5.848;2024-03-22T02:55:30;11.30;99.90
42019;DHT22;27703;51.980;5.848;2024-03-22T02:57:58;11.30;99.90
42019;DHT22;27703;51.980;5.848;2024-03-22T03:00:24;11.30;99.90
42019;DHT22;27703;51.980;5.848;2024-03-22T03:02:50;11.30;99.90
42019;DHT22;27703;51.980;5.848;2024-03-22T03:05:16;11.30;99.90
42019;DHT22;27703;51.980;5.848;2024-03-22T03:07:41;11.30;99.90
42019;DHT22;27703;51.980;5.848;2024-03-22T03:10:07;11.30;99.90
42019;DHT22;27703;51.980;5.848;2024-03-22T03:12:32;11.30;99.90
42019;DHT22;27703;51.980;5.848;2024-03-22T03:14:58;11.30;99.90
42019;DHT22;27703;51.980;5.848;2024-03-22T03:17:24;11.30;99.90
42019;DHT22;27703;51.980;5.848;2024-03-22T03:19:49;11.30;99.90
42019;DHT22;27703;51.980;5.848;2024-03-22T03:22:15;11.30;99.90
42019;DHT22;27703;51.980;5.848;2024-03-22T03:24:40;11.30;99.90
42019;DHT22;27703;51.980;5.848;2024-03-22T03:27:06;11.40;99.90
42019;DHT22;27703;51.980;5.848;2024-03-22T03:29:31;11.40;99.90
42019;DHT22;27703;51.980;5.848;2024-03-22T03:31:57;11.40;99.90
42019;DHT22;27703;51.980;5.848;2024-03-22T03:34:23;11.40;99.90
42019;DHT22;27703;51.980;5.848;2024-03-22T03:36:48;11.40;99.90
42019;DHT22;27703;51.980;5.848;2024-03-22T03:39:14;11.40;99.90
42019;DHT22;27703;51.980;5.848;2024-03-22T03:41:39;11.40;99.90
42019;DHT22;27703;51.980;5.848;2024-03-22T03:44:05;11.40;99.90
42019;DHT22;27703;51.980;5.848;2024-03-22T03:46:30;11.40;99.90
42019;DHT22;27703;51.980;5.848;2024-03-22T03:48:56;11.40;99.90
42019;DHT22;27703;51.980;5.848;2024-03-22T03:51:22;11.40;99.90
42019;DHT22;27703;51.980;5.848;2024-03-22T03:53:47;11.40;99.90
42019;DHT22;27703;51.980;5.848;2024-03-22T03:56:13;11.40;99.90
42019;DHT22;27703;51.980;5.848;2024-03-22T03:58:38;11.40;99.90
42019;DHT22;27703;51.980;5.848;2024-03-22T04:01:10;11.50;99.90
42019;DHT22;27703;51.980;5.848;2024-03-22T04:03:35;11.40;99.90
42019;DHT22;27703;51.980;5.848;2024-03-22T04:06:01;11.40;99.90
42019;DHT22;27703;51.980;5.848;2024-03-22T04:08:27;11.40;99.90
42019;DHT22;27703;51.980;5.848;2024-03-22T04:10:53;11.40;99.90
42019;DHT22;27703;51.980;5.848;2024-03-22T04:13:21;11.40;99.90
42019;DHT22;27703;51.980;5.848;2024-03-22T04:15:47;11.40;99.90
42019;DHT22;27703;51.980;5.848;2024-03-22T04:18:12;11.40;99.90
42019;DHT22;27703;51.980;5.848;2024-03-22T04:20:38;11.40;99.90
42019;DHT22;27703;51.980;5.848;2024-03-22T04:23:03;11.40;99.90
42019;DHT22;27703;51.980;5.848;2024-03-22T04:25:29;11.40;99.90
42019;DHT22;27703;51.980;5.848;2024-03-22T04:27:54;11.40;99.90
42019;DHT22;27703;51.980;5.848;2024-03-22T04:30:20;11.40;99.90
42019;DHT22;27703;51.980;5.848;2024-03-22T04:32:46;11.40;99.90
42019;DHT22;27703;51.980;5.848;2024-03-22T04:35:12;11.40;99.90
42019;DHT22;27703;51.980;5.848;2024-03-22T04:37:37;11.40;99.90
42019;DHT22;27703;51.980;5.848;2024-03-22T04:40:03;11.40;99.90
42019;DHT22;27703;51.980;5.848;2024-03-22T04:42:29;11.40;99.90
42019;DHT22;27703;51.980;5.848;2024-03-22T04:44:54;11.40;99.90
42019;DHT22;27703;51.980;5.848;2024-03-22T04:47:20;11.30;99.90
42019;DHT22;27703;51.980;5.848;2024-03-22T04:49:46;11.30;99.90
42019;DHT22;27703;51.980;5.848;2024-03-22T04:52:11;11.30;99.90
42019;DHT22;27703;51.980;5.848;2024-03-22T04:54:37;11.30;99.90
42019;DHT22;27703;51.980;5.848;2024-03-22T04:57:02;11.30;99.90
42019;DHT22;27703;51.980;5.848;2024-03-22T04:59:28;11.30;99.90
42019;DHT22;27703;51.980;5.848;2024-03-22T05:01:53;11.30;99.90
42019;DHT22;27703;51.980;5.848;2024-03-22T05:04:19;11.30;99.90
42019;DHT22;27703;51.980;5.848;2024-03-22T05:06:45;11.30;99.90
42019;DHT22;27703;51.980;5.848;2024-03-22T05:09:10;11.20;99.90
42019;DHT22;27703;51.980;5.848;2024-03-22T05:11:36;11.20;99.90
42019;DHT22;27703;51.980;5.848;2024-03-22T05:14:02;11.20;99.90
42019;DHT22;27703;51.980;5.848;2024-03-22T05:16:28;11.20;99.90
42019;DHT22;27703;51.980;5.848;2024-03-22T05:18:53;11.20;99.90
42019;DHT22;27703;51.980;5.848;2024-03-22T05:21:19;11.20;99.90
42019;DHT22;27703;51.980;5.848;2024-03-22T05:23:44;11.20;99.90
42019;DHT22;27703;51.980;5.848;2024-03-22T05:26:10;11.20;99.90
42019;DHT22;27703;51.980;5.848;2024-03-22T05:28:35;11.20;99.90
42019;DHT22;27703;51.980;5.848;2024-03-22T05:31:01;11.10;99.90
42019;DHT22;27703;51.980;5.848;2024-03-22T05:33:26;11.10;99.90
42019;DHT22;27703;51.980;5.848;2024-03-22T05:35:52;11.10;99.90
42019;DHT22;27703;51.980;5.848;2024-03-22T05:38:18;11.10;99.90
42019;DHT22;27703;51.980;5.848;2024-03-22T05:40:43;11.10;99.90
42019;DHT22;27703;51.980;5.848;2024-03-22T05:43:11;11.10;99.90
42019;DHT22;27703;51.980;5.848;2024-03-22T05:45:37;11.10;99.90
42019;DHT22;27703;51.980;5.848;2024-03-22T05:48:02;11.10;99.90
42019;DHT22;27703;51.980;5.848;2024-03-22T05:50:28;11.10;99.90
42019;DHT22;27703;51.980;5.848;2024-03-22T05:52:54;11.00;99.90
42019;DHT22;27703;51.980;5.848;2024-03-22T05:55:19;11.00;99.90
42019;DHT22;27703;51.980;5.848;2024-03-22T05:57:45;11.00;99.90
42019;DHT22;27703;51.980;5.848;2024-03-22T06:00:10;11.00;99.90
42019;DHT22;27703;51.980;5.848;2024-03-22T06:02:38;11.00;99.90
42019;DHT22;27703;51.980;5.848;2024-03-22T06:05:04;11.00;99.90
42019;DHT22;27703;51.980;5.848;2024-03-22T06:07:30;11.00;99.90
42019;DHT22;27703;51.980;5.848;2024-03-22T06:10:04;11.00;99.90
42019;DHT22;27703;51.980;5.848;2024-03-22T06:12:30;11.00;99.90
42019;DHT22;27703;51.980;5.848;2024-03-22T06:14:55;11.00;99.90
42019;DHT22;27703;51.980;5.848;2024-03-22T06:17:21;11.00;99.90
42019;DHT22;27703;51.980;5.848;2024-03-22T06:19:46;11.00;99.90
42019;DHT22;27703;51.980;5.848;2024-03-22T06:22:12;11.00;99.90
42019;DHT22;27703;51.980;5.848;2024-03-22T06:24:38;11.00;99.90
42019;DHT22;27703;51.980;5.848;2024-03-22T06:27:03;11.00;99.90
42019;DHT22;27703;51.980;5.848;2024-03-22T06:29:29;11.00;99.90
42019;DHT22;27703;51.980;5.848;2024-03-22T06:31:54;11.00;99.90
42019;DHT22;27703;51.980;5.848;2024-03-22T06:34:20;11.00;99.90
42019;DHT22;27703;51.980;5.848;2024-03-22T06:36:46;11.00;99.90
42019;DHT22;27703;51.980;5.848;2024-03-22T06:39:12;11.00;99.90
42019;DHT22;27703;51.980;5.848;2024-03-22T06:41:38;11.00;99.90
42019;DHT22;27703;51.980;5.848;2024-03-22T06:44:04;10.90;99.90
42019;DHT22;27703;51.980;5.848;2024-03-22T06:46:30;11.00;99.90
42019;DHT22;27703;51.980;5.848;2024-03-22T06:48:55;11.00;99.90
42019;DHT22;27703;51.980;5.848;2024-03-22T06:51:21;11.00;99.90
42019;DHT22;27703;51.980;5.848;2024-03-22T06:53:47;11.00;99.90
42019;DHT22;27703;51.980;5.848;2024-03-22T06:56:13;11.00;99.90
42019;DHT22;27703;51.980;5.848;2024-03-22T06:58:39;11.00;99.90
42019;DHT22;27703;51.980;5.848;2024-03-22T07:01:05;11.00;99.90
42019;DHT22;27703;51.980;5.848;2024-03-22T07:03:30;11.10;99.90
42019;DHT22;27703;51.980;5.848;2024-03-22T07:05:56;11.10;99.90
42019;DHT22;27703;51.980;5.848;2024-03-22T07:08:23;11.10;99.90
42019;DHT22;27703;51.980;5.848;2024-03-22T07:10:50;11.10;99.90
42019;DHT22;27703;51.980;5.848;2024-03-22T07:13:16;11.10;99.90
42019;DHT22;27703;51.980;5.848;2024-03-22T07:15:41;11.10;99.90
42019;DHT22;27703;51.980;5.848;2024-03-22T07:18:09;11.10;99.90
42019;DHT22;27703;51.980;5.848;2024-03-22T07:20:34;11.10;99.90
42019;DHT22;27703;51.980;5.848;2024-03-22T07:23:00;11.10;99.90
42019;DHT22;27703;51.980;5.848;2024-03-22T07:25:25;11.20;99.90
42019;DHT22;27703;51.980;5.848;2024-03-22T07:27:51;11.20;99.90
42019;DHT22;27703;51.980;5.848;2024-03-22T07:30:16;11.30;99.90
42019;DHT22;27703;51.980;5.848;2024-03-22T07:32:42;11.40;99.90
42019;DHT22;27703;51.980;5.848;2024-03-22T07:35:07;11.40;99.90
42019;DHT22;27703;51.980;5.848;2024-03-22T07:37:33;11.40;99.90
42019;DHT22;27703;51.980;5.848;2024-03-22T07:40:02;11.40;99.90
42019;DHT22;27703;51.980;5.848;2024-03-22T07:42:28;11.40;99.90
42019;DHT22;27703;51.980;5.848;2024-03-22T07:44:54;11.40;99.90
42019;DHT22;27703;51.980;5.848;2024-03-22T07:47:19;11.50;99.90
42019;DHT22;27703;51.980;5.848;2024-03-22T07:49:45;11.40;99.90
42019;DHT22;27703;51.980;5.848;2024-03-22T07:52:10;11.40;99.90
42019;DHT22;27703;51.980;5.848;2024-03-22T07:54:36;11.40;99.90
42019;DHT22;27703;51.980;5.848;2024-03-22T07:57:01;11.40;99.90
42019;DHT22;27703;51.980;5.848;2024-03-22T07:59:28;11.40;99.90
42019;DHT22;27703;51.980;5.848;2024-03-22T08:01:53;11.40;99.90
42019;DHT22;27703;51.980;5.848;2024-03-22T08:04:19;11.40;99.90
42019;DHT22;27703;51.980;5.848;2024-03-22T08:06:46;11.40;99.90
42019;DHT22;27703;51.980;5.848;2024-03-22T08:09:11;11.40;99.90
42019;DHT22;27703;51.980;5.848;2024-03-22T08:11:37;11.40;99.90
42019;DHT22;27703;51.980;5.848;2024-03-22T08:14:02;11.40;99.90
42019;DHT22;27703;51.980;5.848;2024-03-22T08:16:29;11.40;99.90
42019;DHT22;27703;51.980;5.848;2024-03-22T08:18:55;11.40;99.90
42019;DHT22;27703;51.980;5.848;2024-03-22T08:21:22;11.40;99.90
42019;DHT22;27703;51.980;5.848;2024-03-22T08:23:48;11.40;99.90
42019;DHT22;27703;51.980;5.848;2024-03-22T08:26:13;11.40;99.90
42019;DHT22;27703;51.980;5.848;2024-03-22T08:28:39;11.40;99.90
42019;DHT22;27703;51.980;5.848;2024-03-22T08:31:05;11.40;99.90
42019;DHT22;27703;51.980;5.848;2024-03-22T08:33:31;11.40;99.90
42019;DHT22;27703;51.980;5.848;2024-03-22T08:35:56;11.40;99.90
42019;DHT22;27703;51.980;5.848;2024-03-22T08:38:22;11.40;99.90
42019;DHT22;27703;51.980;5.848;2024-03-22T08:40:49;11.40;99.90
42019;DHT22;27703;51.980;5.848;2024-03-22T08:43:15;11.50;99.90
42019;DHT22;27703;51.980;5.848;2024-03-22T08:45:41;11.40;99.90
42019;DHT22;27703;51.980;5.848;2024-03-22T08:48:07;11.40;99.90
42019;DHT22;27703;51.980;5.848;2024-03-22T08:50:33;11.40;99.90
42019;DHT22;27703;51.980;5.848;2024-03-22T08:52:58;11.40;99.90
42019;DHT22;27703;51.980;5.848;2024-03-22T08:55:24;11.40;99.90
42019;DHT22;27703;51.980;5.848;2024-03-22T08:57:49;11.40;99.90
42019;DHT22;27703;51.980;5.848;2024-03-22T09:00:16;11.40;99.90
42019;DHT22;27703;51.980;5.848;2024-03-22T09:02:42;11.40;99.90
42019;DHT22;27703;51.980;5.848;2024-03-22T09:05:07;11.40;99.90
42019;DHT22;27703;51.980;5.848;2024-03-22T09:07:34;11.40;99.90
42019;DHT22;27703;51.980;5.848;2024-03-22T09:09:59;11.30;99.90
42019;DHT22;27703;51.980;5.848;2024-03-22T09:12:25;11.20;99.90
42019;DHT22;27703;51.980;5.848;2024-03-22T09:14:50;11.20;99.90
42019;DHT22;27703;51.980;5.848;2024-03-22T09:17:16;11.20;99.90
42019;DHT22;27703;51.980;5.848;2024-03-22T09:19:41;11.20;99.90
42019;DHT22;27703;51.980;5.848;2024-03-22T09:22:07;11.20;99.90
42019;DHT22;27703;51.980;5.848;2024-03-22T09:24:32;11.20;99.90
42019;DHT22;27703;51.980;5.848;2024-03-22T09:26:58;11.20;99.90
42019;DHT22;27703;51.980;5.848;2024-03-22T09:29:24;11.20;99.90
42019;DHT22;27703;51.980;5.848;2024-03-22T09:31:50;11.20;99.90
42019;DHT22;27703;51.980;5.848;2024-03-22T09:34:16;11.20;99.90
42019;DHT22;27703;51.980;5.848;2024-03-22T09:36:42;11.20;99.90
42019;DHT22;27703;51.980;5.848;2024-03-22T09:39:07;11.20;99.90
42019;DHT22;27703;51.980;5.848;2024-03-22T09:41:41;11.20;99.90
42019;DHT22;27703;51.980;5.848;2024-03-22T09:44:12;11.20;99.90
42019;DHT22;27703;51.980;5.848;2024-03-22T09:46:39;11.20;99.90
42019;DHT22;27703;51.980;5.848;2024-03-22T09:49:06;11.20;99.90
42019;DHT22;27703;51.980;5.848;2024-03-22T09:51:33;11.20;99.90
42019;DHT22;27703;51.980;5.848;2024-03-22T09:54:00;11.20;99.90
42019;DHT22;27703;51.980;5.848;2024-03-22T09:56:26;11.20;99.90
42019;DHT22;27703;51.980;5.848;2024-03-22T09:58:53;11.20;99.90
42019;DHT22;27703;51.980;5.848;2024-03-22T10:01:18;11.20;99.90
42019;DHT22;27703;51.980;5.848;2024-03-22T10:03:44;11.30;99.90
42019;DHT22;27703;51.980;5.848;2024-03-22T10:06:09;11.30;99.90
42019;DHT22;27703;51.980;5.848;2024-03-22T10:08:35;11.30;99.90
42019;DHT22;27703;51.980;5.848;2024-03-22T10:11:04;11.30;99.90
42019;DHT22;27703;51.980;5.848;2024-03-22T10:13:29;11.40;99.90
42019;DHT22;27703;51.980;5.848;2024-03-22T10:15:56;11.30;99.90
42019;DHT22;27703;51.980;5.848;2024-03-22T10:18:22;11.30;99.90
42019;DHT22;27703;51.980;5.848;2024-03-22T10:21:01;11.30;99.90
42019;DHT22;27703;51.980;5.848;2024-03-22T10:23:27;11.30;99.90
42019;DHT22;27703;51.980;5.848;2024-03-22T10:25:53;11.30;99.90
42019;DHT22;27703;51.980;5.848;2024-03-22T10:28:19;11.30;99.90
42019;DHT22;27703;51.980;5.848;2024-03-22T10:30:44;11.20;99.90
42019;DHT22;27703;51.980;5.848;2024-03-22T10:33:13;11.20;99.90
42019;DHT22;27703;51.980;5.848;2024-03-22T10:35:39;11.20;99.90
42019;DHT22;27703;51.980;5.848;2024-03-22T10:38:06;11.20;99.90
42019;DHT22;27703;51.980;5.848;2024-03-22T10:40:33;11.20;99.90
42019;DHT22;27703;51.980;5.848;2024-03-22T10:43:00;11.20;99.90
42019;DHT22;27703;51.980;5.848;2024-03-22T10:45:29;11.20;99.90
42019;DHT22;27703;51.980;5.848;2024-03-22T10:47:55;11.20;99.90
42019;DHT22;27703;51.980;5.848;2024-03-22T10:50:22;11.10;99.90
42019;DHT22;27703;51.980;5.848;2024-03-22T10:53:05;11.10;99.90
42019;DHT22;27703;51.980;5.848;2024-03-22T10:55:35;11.10;99.90
42019;DHT22;27703;51.980;5.848;2024-03-22T10:58:02;11.00;99.90
42019;DHT22;27703;51.980;5.848;2024-03-22T11:00:31;11.00;99.90
42019;DHT22;27703;51.980;5.848;2024-03-22T11:02:57;11.00;99.90
42019;DHT22;27703;51.980;5.848;2024-03-22T11:05:23;11.00;99.90
42019;DHT22;27703;51.980;5.848;2024-03-22T11:08:05;11.00;99.90
42019;DHT22;27703;51.980;5.848;2024-03-22T11:10:37;10.90;99.90
42019;DHT22;27703;51.980;5.848;2024-03-22T11:13:07;11.00;99.90
42019;DHT22;27703;51.980;5.848;2024-03-22T11:15:34;11.00;99.90
42019;DHT22;27703;51.980;5.848;2024-03-22T11:18:00;11.00;99.90
42019;DHT22;27703;51.980;5.848;2024-03-22T11:20:27;11.00;99.90
42019;DHT22;27703;51.980;5.848;2024-03-22T11:22:53;11.00;99.90
42019;DHT22;27703;51.980;5.848;2024-03-22T11:25:19;11.00;99.90
42019;DHT22;27703;51.980;5.848;2024-03-22T11:27:48;11.00;99.90
42019;DHT22;27703;51.980;5.848;2024-03-22T11:30:15;11.00;99.90
42019;DHT22;27703;51.980;5.848;2024-03-22T11:32:41;11.00;99.90
42019;DHT22;27703;51.980;5.848;2024-03-22T11:35:11;10.90;99.90
42019;DHT22;27703;51.980;5.848;2024-03-22T11:37:41;10.90;99.90
42019;DHT22;27703;51.980;5.848;2024-03-22T11:40:11;10.90;99.90
42019;DHT22;27703;51.980;5.848;2024-03-22T11:42:38;11.00;99.90
42019;DHT22;27703;51.980;5.848;2024-03-22T11:45:05;11.00;99.90
42019;DHT22;27703;51.980;5.848;2024-03-22T11:47:33;11.00;99.90
42019;DHT22;27703;51.980;5.848;2024-03-22T11:49:59;10.90;99.90
42019;DHT22;27703;51.980;5.848;2024-03-22T11:52:25;11.00;99.90
42019;DHT22;27703;51.980;5.848;2024-03-22T11:54:52;11.00;99.90
42019;DHT22;27703;51.980;5.848;2024-03-22T11:57:18;11.00;99.90
42019;DHT22;27703;51.980;5.848;2024-03-22T11:59:44;11.00;99.90
42019;DHT22;27703;51.980;5.848;2024-03-22T12:02:10;11.00;99.90
42019;DHT22;27703;51.980;5.848;2024-03-22T12:04:35;11.00;99.90
42019;DHT22;27703;51.980;5.848;2024-03-22T12:07:01;11.00;99.90
42019;DHT22;27703;51.980;5.848;2024-03-22T12:09:27;11.00;99.90
42019;DHT22;27703;51.980;5.848;2024-03-22T12:11:55;11.00;99.90
42019;DHT22;27703;51.980;5.848;2024-03-22T12:14:21;11.10;99.90
42019;DHT22;27703;51.980;5.848;2024-03-22T12:16:46;11.00;99.90
42019;DHT22;27703;51.980;5.848;2024-03-22T12:19:12;11.00;99.90
42019;DHT22;27703;51.980;5.848;2024-03-22T12:21:37;11.10;99.90
42019;DHT22;27703;51.980;5.848;2024-03-22T12:24:03;11.00;99.90
42019;DHT22;27703;51.980;5.848;2024-03-22T12:26:29;11.10;99.90
42019;DHT22;27703;51.980;5.848;2024-03-22T12:28:57;11.10;99.90
42019;DHT22;27703;51.980;5.848;2024-03-22T12:31:22;11.10;99.90
42019;DHT22;27703;51.980;5.848;2024-03-22T12:33:48;11.10;99.90
42019;DHT22;27703;51.980;5.848;2024-03-22T12:36:13;11.10;99.90
42019;DHT22;27703;51.980;5.848;2024-03-22T12:38:39;11.10;99.90
42019;DHT22;27703;51.980;5.848;2024-03-22T12:41:05;11.20;99.90
42019;DHT22;27703;51.980;5.848;2024-03-22T12:43:31;11.10;99.90
42019;DHT22;27703;51.980;5.848;2024-03-22T12:45:56;11.10;99.90
42019;DHT22;27703;51.980;5.848;2024-03-22T12:48:22;11.20;99.90
42019;DHT22;27703;51.980;5.848;2024-03-22T12:50:47;11.20;99.90
42019;DHT22;27703;51.980;5.848;2024-03-22T12:53:13;11.20;99.90
42019;DHT22;27703;51.980;5.848;2024-03-22T12:55:39;11.20;99.90
42019;DHT22;27703;51.980;5.848;2024-03-22T12:58:04;11.20;99.90
42019;DHT22;27703;51.980;5.848;2024-03-22T13:00:30;11.20;99.90
42019;DHT22;27703;51.980;5.848;2024-03-22T13:02:55;11.20;99.90
42019;DHT22;27703;51.980;5.848;2024-03-22T13:05:21;11.20;99.90
42019;DHT22;27703;51.980;5.848;2024-03-22T13:07:47;11.20;99.90
42019;DHT22;27703;51.980;5.848;2024-03-22T13:10:13;11.20;99.90
42019;DHT22;27703;51.980;5.848;2024-03-22T13:12:38;11.20;99.90
42019;DHT22;27703;51.980;5.848;2024-03-22T13:15:04;11.30;99.90
42019;DHT22;27703;51.980;5.848;2024-03-22T13:17:30;11.30;99.90
42019;DHT22;27703;51.980;5.848;2024-03-22T13:19:56;11.30;99.90
42019;DHT22;27703;51.980;5.848;2024-03-22T13:22:21;11.40;99.90
42019;DHT22;27703;51.980;5.848;2024-03-22T13:24:47;11.40;99.90
42019;DHT22;27703;51.980;5.848;2024-03-22T13:27:13;11.40;99.90
42019;DHT22;27703;51.980;5.848;2024-03-22T13:29:42;11.40;99.90
42019;DHT22;27703;51.980;5.848;2024-03-22T13:32:08;11.40;99.90
42019;DHT22;27703;51.980;5.848;2024-03-22T13:34:37;11.40;99.90
42019;DHT22;27703;51.980;5.848;2024-03-22T13:37:03;11.30;99.90
42019;DHT22;27703;51.980;5.848;2024-03-22T13:39:29;11.30;99.90
42019;DHT22;27703;51.980;5.848;2024-03-22T13:41:56;11.30;99.90
42019;DHT22;27703;51.980;5.848;2024-03-22T13:44:22;11.30;99.90
42019;DHT22;27703;51.980;5.848;2024-03-22T13:46:50;11.30;99.90
42019;DHT22;27703;51.980;5.848;2024-03-22T13:49:17;11.40;99.90
42019;DHT22;27703;51.980;5.848;2024-03-22T13:51:46;11.40;99.90
42019;DHT22;27703;51.980;5.848;2024-03-22T13:54:12;11.40;99.90
42019;DHT22;27703;51.980;5.848;2024-03-22T13:56:38;11.40;99.90
42019;DHT22;27703;51.980;5.848;2024-03-22T13:59:04;11.40;99.90
42019;DHT22;27703;51.980;5.848;2024-03-22T14:01:36;11.50;99.90
42019;DHT22;27703;51.980;5.848;2024-03-22T14:04:04;11.50;99.90
42019;DHT22;27703;51.980;5.848;2024-03-22T14:06:30;11.50;99.90
42019;DHT22;27703;51.980;5.848;2024-03-22T14:08:57;11.40;99.90
42019;DHT22;27703;51.980;5.848;2024-03-22T14:11:27;11.40;99.90
42019;DHT22;27703;51.980;5.848;2024-03-22T14:13:52;11.40;99.90
42019;DHT22;27703;51.980;5.848;2024-03-22T14:16:18;11.30;99.90
42019;DHT22;27703;51.980;5.848;2024-03-22T14:18:44;11.30;99.90
42019;DHT22;27703;51.980;5.848;2024-03-22T14:21:09;11.30;99.90
42019;DHT22;27703;51.980;5.848;2024-03-22T14:23:36;11.20;99.90
42019;DHT22;27703;51.980;5.848;2024-03-22T14:26:02;11.20;99.90
42019;DHT22;27703;51.980;5.848;2024-03-22T14:28:28;11.20;99.90
42019;DHT22;27703;51.980;5.848;2024-03-22T14:30:53;11.20;99.90
42019;DHT22;27703;51.980;5.848;2024-03-22T14:33:19;11.20;99.90
42019;DHT22;27703;51.980;5.848;2024-03-22T14:35:44;11.20;99.90
42019;DHT22;27703;51.980;5.848;2024-03-22T14:38:10;11.20;99.90
42019;DHT22;27703;51.980;5.848;2024-03-22T14:40:35;11.20;99.90
42019;DHT22;27703;51.980;5.848;2024-03-22T14:43:03;11.20;99.90
42019;DHT22;27703;51.980;5.848;2024-03-22T14:45:29;11.30;99.90
42019;DHT22;27703;51.980;5.848;2024-03-22T14:47:54;11.30;99.90
42019;DHT22;27703;51.980;5.848;2024-03-22T14:50:20;11.20;99.90
42019;DHT22;27703;51.980;5.848;2024-03-22T14:52:48;11.20;99.90
42019;DHT22;27703;51.980;5.848;2024-03-22T14:55:14;11.20;99.90
42019;DHT22;27703;51.980;5.848;2024-03-22T14:57:39;11.10;99.90
42019;DHT22;27703;51.980;5.848;2024-03-22T15:00:06;11.10;99.90
42019;DHT22;27703;51.980;5.848;2024-03-22T15:02:35;11.10;99.90
42019;DHT22;27703;51.980;5.848;2024-03-22T15:05:01;11.10;99.90
42019;DHT22;27703;51.980;5.848;2024-03-22T15:07:26;11.10;99.90
42019;DHT22;27703;51.980;5.848;2024-03-22T15:09:52;11.00;99.90
42019;DHT22;27703;51.980;5.848;2024-03-22T15:12:17;11.00;99.90
42019;DHT22;27703;51.980;5.848;2024-03-22T15:14:43;11.10;99.90
42019;DHT22;27703;51.980;5.848;2024-03-22T15:17:08;11.10;99.90
42019;DHT22;27703;51.980;5.848;2024-03-22T15:19:35;11.10;99.90
42019;DHT22;27703;51.980;5.848;2024-03-22T15:22:00;11.10;99.90